Time;durP1;ratioP1;P1;durP2;ratioP2;P2;SDS_P1;SDS_P2;PMS_P1;PMS_P2;Temp;Humidity;BMP_temperature;BMP_pressure;BME280_temperature;BME280_humidity;BME280_pressure;Samples;Min_cycle;Max_cycle;Signal;HPM_P1;HPM_P2
2023/10/24 00:00:53;;;;;;;1999.90;999.90;;;;;;;10.77;100.00;93606.16;5007702;28;20172;-49
2023/10/24 00:03:18;;;;;;;1999.90;999.90;;;;;;;10.79;100.00;93606.50;5007620;28;20500;-47
2023/10/24 00:05:44;;;;;;;1999.90;999.90;;;;;;;10.82;100.00;93602.84;5007577;28;20194;-52
2023/10/24 00:08:10;;;;;;;1999.90;999.90;;;;;;;10.82;100.00;93596.63;5007557;28;20182;-52
2023/10/24 00:10:35;;;;;;;1999.90;999.90;;;;;;;10.82;100.00;93583.72;5007924;28;20194;-52
2023/10/24 00:13:01;;;;;;;1999.90;999.90;;;;;;;10.84;100.00;93589.53;5007537;28;20186;-53
2023/10/24 00:15:26;;;;;;;1999.90;999.90;;;;;;;10.85;100.00;93576.63;5007879;28;20171;-52
2023/10/24 00:17:51;;;;;;;1999.90;999.90;;;;;;;10.85;100.00;93584.81;5007929;28;20210;-48
2023/10/24 00:20:17;;;;;;;1999.90;999.90;;;;;;;10.86;100.00;93583.59;5007354;28;20254;-51
2023/10/24 00:22:42;;;;;;;1999.90;999.90;;;;;;;10.87;100.00;93582.38;5007270;28;20175;-51
2023/10/24 00:25:08;;;;;;;1999.90;999.90;;;;;;;10.89;100.00;93596.38;5007689;28;20181;-50
2023/10/24 00:27:33;;;;;;;1999.90;999.90;;;;;;;10.83;100.00;93606.34;5007817;28;20170;-54
2023/10/24 00:29:58;;;;;;;1999.90;999.90;;;;;;;10.76;100.00;93614.81;5007707;28;20175;-51
2023/10/24 00:32:24;;;;;;;1999.90;999.90;;;;;;;10.73;100.00;93610.22;5007139;28;20283;-52
2023/10/24 00:34:49;;;;;;;1999.90;999.90;;;;;;;10.71;100.00;93597.03;5007058;28;20183;-52
2023/10/24 00:37:14;;;;;;;1999.90;999.90;;;;;;;10.68;100.00;93597.94;5007761;28;20210;-50
2023/10/24 00:39:40;;;;;;;1999.90;999.90;;;;;;;10.67;100.00;93601.13;5007117;28;20256;-51
2023/10/24 00:42:05;;;;;;;1999.90;999.90;;;;;;;10.66;100.00;93607.75;5007780;28;20174;-52
2023/10/24 00:44:32;;;;;;;1999.90;999.90;;;;;;;10.64;100.00;93618.38;5007694;28;20198;-47
2023/10/24 00:46:58;;;;;;;1999.90;999.90;;;;;;;10.61;100.00;93652.03;5006859;28;20179;-53
2023/10/24 00:49:24;;;;;;;1999.90;999.90;;;;;;;10.59;100.00;93649.00;5007559;28;20168;-48
2023/10/24 00:51:51;;;;;;;1999.90;999.90;;;;;;;10.58;100.00;93650.19;5007479;28;20211;-50
2023/10/24 00:54:17;;;;;;;1999.90;999.90;;;;;;;10.57;100.00;93656.84;5007233;28;20179;-47
2023/10/24 00:56:46;;;;;;;1999.90;999.90;;;;;;;10.61;100.00;93657.47;5006655;28;20462;-51
2023/10/24 00:59:13;;;;;;;1999.90;999.90;;;;;;;10.62;100.00;93642.63;5006550;28;20203;-50
2023/10/24 01:01:39;;;;;;;1999.90;999.90;;;;;;;10.68;100.00;93646.31;5007155;28;20203;-49
2023/10/24 01:04:05;;;;;;;1999.90;999.90;;;;;;;10.70;100.00;93638.44;5006639;28;20183;-51
2023/10/24 01:06:31;;;;;;;1999.90;999.90;;;;;;;10.69;100.00;93625.97;5006545;28;20372;-52
2023/10/24 01:08:56;;;;;;;1999.90;999.90;;;;;;;10.69;100.00;93621.28;5006924;28;20185;-47
2023/10/24 01:11:22;;;;;;;1999.90;999.90;;;;;;;10.71;100.00;93634.50;5005277;28;20244;-46
2023/10/24 01:13:48;;;;;;;1999.90;999.90;;;;;;;10.71;100.00;93634.50;5006415;28;20187;-47
2023/10/24 01:16:14;;;;;;;1999.90;999.90;;;;;;;10.71;100.00;93629.03;5006396;28;20210;-49
2023/10/24 01:18:40;;;;;;;1999.90;999.90;;;;;;;10.68;100.00;93627.19;5006233;28;20214;-52
2023/10/24 01:21:06;;;;;;;1999.90;999.90;;;;;;;10.69;100.00;93625.97;5006341;28;20198;-52
2023/10/24 01:23:31;;;;;;;1999.90;999.90;;;;;;;10.69;100.00;93628.72;5006178;28;20180;-50
2023/10/24 01:25:58;;;;;;;1999.90;999.90;;;;;;;10.67;100.00;93631.16;5006267;28;20254;-51
2023/10/24 01:28:26;;;;;;;1999.90;999.90;;;;;;;10.65;100.00;93630.81;5006087;28;20182;-50
2023/10/24 01:30:51;;;;;;;1999.90;999.90;;;;;;;10.62;100.00;93620.78;5006303;28;20182;-50
2023/10/24 01:33:16;;;;;;;1999.90;999.90;;;;;;;10.62;100.00;93607.91;5006450;28;20185;-50
2023/10/24 01:35:42;;;;;;;1999.90;999.90;;;;;;;10.62;100.00;93599.72;5006449;28;20188;-50
2023/10/24 01:38:07;;;;;;;1999.90;999.90;;;;;;;10.61;100.00;93597.44;5005810;28;20310;-49
2023/10/24 01:40:32;;;;;;;1999.90;999.90;;;;;;;10.57;100.00;93602.28;5006063;28;20220;-51
2023/10/24 01:42:58;;;;;;;1999.90;999.90;;;;;;;10.54;100.00;93608.63;5006299;28;20186;-52
2023/10/24 01:45:23;;;;;;;1999.90;999.90;;;;;;;10.51;100.00;93613.00;5005866;28;20174;-51
2023/10/24 01:47:49;;;;;;;1999.90;999.90;;;;;;;10.49;100.00;93611.94;5006560;28;20218;-50
2023/10/24 01:50:14;;;;;;;1999.90;999.90;;;;;;;10.47;100.00;93619.78;5005779;28;20183;-50
2023/10/24 01:52:39;;;;;;;1999.90;999.90;;;;;;;10.47;100.00;93619.78;5006081;28;20174;-50
2023/10/24 01:55:05;;;;;;;1999.90;999.90;;;;;;;10.44;100.00;93612.50;5005672;28;20187;-50
2023/10/24 01:57:30;;;;;;;1999.90;999.90;;;;;;;10.40;100.00;93609.13;5005538;28;20544;-50
2023/10/24 01:59:56;;;;;;;1999.90;999.90;;;;;;;10.34;100.00;93605.47;5005497;28;20214;-47
2023/10/24 02:02:21;;;;;;;1999.90;999.90;;;;;;;10.31;100.00;93606.34;5005426;28;20175;-50
2023/10/24 02:04:46;;;;;;;1999.90;999.90;;;;;;;10.29;100.00;93616.94;5005883;28;20173;-49
2023/10/24 02:07:12;;;;;;;1999.90;999.90;;;;;;;10.26;100.00;93615.13;5005402;28;20174;-47
2023/10/24 02:09:37;;;;;;;1999.90;999.90;;;;;;;10.20;100.00;93605.97;5005281;28;20249;-50
2023/10/24 02:12:03;;;;;;;1999.90;999.90;;;;;;;10.17;100.00;93615.81;5005473;28;20178;-51
2023/10/24 02:14:28;;;;;;;1999.90;999.90;;;;;;;10.13;100.00;93615.94;5005254;28;20175;-52
2023/10/24 02:16:54;;;;;;;1999.90;999.90;;;;;;;10.08;100.00;93624.69;5005150;28;20238;-51
2023/10/24 02:19:19;;;;;;;1999.90;999.90;;;;;;;10.04;100.00;93621.28;5005200;28;20209;-48
2023/10/24 02:21:44;;;;;;;1999.90;999.90;;;;;;;10.02;100.00;93623.69;5005320;28;20177;-50
2023/10/24 02:24:10;;;;;;;1999.90;999.90;;;;;;;10.00;100.00;93620.66;5004998;28;20178;-52
2023/10/24 02:26:36;;;;;;;1999.90;999.90;;;;;;;9.95;100.00;93610.31;5005056;28;20187;-52
2023/10/24 02:29:01;;;;;;;1999.90;999.90;;;;;;;9.91;100.00;93590.59;5004981;28;20178;-50
2023/10/24 02:31:27;;;;;;;1999.90;999.90;;;;;;;9.89;100.00;93584.06;5004991;28;20185;-49
2023/10/24 02:33:52;;;;;;;1999.90;999.90;;;;;;;9.85;100.00;93581.47;5005151;28;20188;-50
2023/10/24 02:36:18;;;;;;;1999.90;999.90;;;;;;;9.83;100.00;93572.97;5004942;28;20178;-49
2023/10/24 02:38:43;;;;;;;1999.90;999.90;;;;;;;9.85;100.00;93569.78;5004691;28;20249;-51
2023/10/24 02:41:08;;;;;;;1999.90;999.90;;;;;;;9.79;100.00;93566.88;5005168;28;20238;-53
2023/10/24 02:43:34;;;;;;;1999.90;999.90;;;;;;;9.74;100.00;93553.81;5004940;28;20464;-49
2023/10/24 02:46:03;;;;;;;1999.90;999.90;;;;;;;9.74;100.00;93558.50;5005216;28;20250;-50
2023/10/24 02:48:28;;;;;;;1999.90;999.90;;;;;;;9.71;100.00;93553.94;5004716;28;20191;-51
2023/10/24 02:50:55;;;;;;;1999.90;999.90;;;;;;;9.65;100.00;93556.44;5004320;28;20472;-50
2023/10/24 02:53:20;;;;;;;1999.90;999.90;;;;;;;9.65;100.00;93561.13;5004622;28;20242;-48
2023/10/24 02:55:46;;;;;;;1999.90;999.90;;;;;;;9.61;100.00;93558.53;5004580;28;20224;-47
2023/10/24 02:58:12;;;;;;;1999.90;999.90;;;;;;;9.61;100.00;93555.81;5004505;28;20219;-50
2023/10/24 03:00:37;;;;;;;1999.90;999.90;;;;;;;9.59;100.00;93558.22;5005090;28;20249;-47
2023/10/24 03:03:02;;;;;;;1999.90;999.90;;;;;;;9.55;100.00;93552.13;5005233;28;20247;-50
2023/10/24 03:05:31;;;;;;;1999.90;999.90;;;;;;;9.50;100.00;93539.06;5004525;28;20187;-50
2023/10/24 03:07:56;;;;;;;1999.90;999.90;;;;;;;9.44;100.00;93529.94;5004823;28;20231;-49
2023/10/24 03:10:23;;;;;;;1999.90;999.90;;;;;;;9.40;100.00;93531.28;5004430;28;20204;-50
2023/10/24 03:12:49;;;;;;;1999.90;999.90;;;;;;;9.37;100.00;93534.88;5004382;28;20185;-50
2023/10/24 03:15:14;;;;;;;1999.90;999.90;;;;;;;9.37;100.00;93549.22;5004112;28;20464;-49
2023/10/24 03:17:39;;;;;;;1999.90;999.90;;;;;;;9.38;100.00;93552.72;5004495;28;20216;-49
2023/10/24 03:20:05;;;;;;;1999.90;999.90;;;;;;;9.38;100.00;93545.34;5004506;28;20184;-53
2023/10/24 03:22:31;;;;;;;1999.90;999.90;;;;;;;9.40;100.00;93545.63;5004293;28;20177;-53
2023/10/24 03:24:56;;;;;;;1999.90;999.90;;;;;;;9.34;100.00;93544.69;5004230;28;20175;-53
2023/10/24 03:27:22;;;;;;;1999.90;999.90;;;;;;;9.34;100.00;93546.66;5004268;28;20203;-50
2023/10/24 03:29:47;;;;;;;1999.90;999.90;;;;;;;9.30;100.00;93541.31;5003961;28;20187;-48
2023/10/24 03:32:13;;;;;;;1999.90;999.90;;;;;;;9.27;100.00;93523.13;5004237;28;20333;-50
2023/10/24 03:34:38;;;;;;;1999.90;999.90;;;;;;;9.36;100.00;93528.66;5007153;28;20269;-51
2023/10/24 03:37:04;;;;;;;1999.90;999.90;;;;;;;9.41;100.00;93522.66;5008654;28;20394;-49
2023/10/24 03:39:29;;;;;;;1999.90;999.90;;;;;;;9.33;100.00;93499.56;5010119;28;20203;-52
2023/10/24 03:41:55;;;;;;;1999.90;999.90;;;;;;;9.31;100.00;93510.16;5011835;28;20160;-48
2023/10/24 03:44:24;;;;;;;1999.90;999.90;;;;;;;9.28;100.00;93515.72;5011723;28;20168;-50
2023/10/24 03:46:50;;;;;;;1999.90;999.90;;;;;;;9.27;100.00;93512.25;5011129;28;20184;-50
2023/10/24 03:49:16;;;;;;;1999.90;999.90;;;;;;;9.28;100.00;93513.75;5011483;28;20171;-49
2023/10/24 03:51:41;;;;;;;1999.90;999.90;;;;;;;9.27;100.00;93509.53;5011739;28;20168;-52
2023/10/24 03:54:06;;;;;;;1999.90;999.90;;;;;;;9.28;100.00;93513.00;5011754;28;20172;-52
2023/10/24 03:56:32;;;;;;;1999.90;999.90;;;;;;;9.25;100.00;93522.81;5011049;28;20170;-49
2023/10/24 03:58:58;;;;;;;1999.90;999.90;;;;;;;9.26;100.00;93518.88;5011471;28;20190;-49
2023/10/24 04:01:23;;;;;;;1999.90;999.90;;;;;;;9.26;100.00;93518.13;5011673;28;20251;-51
2023/10/24 04:03:49;;;;;;;1999.90;999.90;;;;;;;9.27;100.00;93525.84;5011288;28;20253;-49
2023/10/24 04:06:14;;;;;;;1999.90;999.90;;;;;;;9.31;100.00;93525.72;5010929;28;20225;-51
2023/10/24 04:08:40;;;;;;;1999.90;999.90;;;;;;;9.31;100.00;93510.16;5010850;28;20370;-50
2023/10/24 04:11:15;;;;;;;1999.90;999.90;;;;;;;9.29;100.00;93518.00;5010892;28;20344;-51
2023/10/24 04:13:42;;;;;;;1999.90;999.90;;;;;;;9.30;100.00;93508.66;5010809;28;20244;-52
2023/10/24 04:16:07;;;;;;;1999.90;999.90;;;;;;;9.27;100.00;93504.06;5011152;28;20249;-49
2023/10/24 04:18:33;;;;;;;1999.90;999.90;;;;;;;9.26;100.00;93501.78;5010664;28;20200;-47
2023/10/24 04:20:58;;;;;;;1999.90;999.90;;;;;;;9.25;100.00;93503.75;5010649;28;20164;-51
2023/10/24 04:23:23;;;;;;;1999.90;999.90;;;;;;;9.25;100.00;93495.56;5011167;28;20178;-50
2023/10/24 04:25:49;;;;;;;1999.90;999.90;;;;;;;9.26;100.00;93497.09;5010421;28;20360;-50
2023/10/24 04:28:14;;;;;;;1999.90;999.90;;;;;;;9.27;100.00;93498.63;5011119;28;20176;-49
2023/10/24 04:30:40;;;;;;;1999.90;999.90;;;;;;;9.28;100.00;93497.41;5010900;28;20463;-49
2023/10/24 04:33:06;;;;;;;1999.90;999.90;;;;;;;9.30;100.00;93491.53;5010662;28;20355;-48
2023/10/24 04:35:32;;;;;;;1999.90;999.90;;;;;;;9.29;100.00;93485.31;5010269;28;20172;-49
2023/10/24 04:37:57;;;;;;;1999.90;999.90;;;;;;;9.27;100.00;93487.72;5010808;28;20241;-48
2023/10/24 04:40:23;;;;;;;1999.90;999.90;;;;;;;9.24;100.00;93494.06;5010307;28;20270;-53
2023/10/24 04:42:50;;;;;;;1999.90;999.90;;;;;;;9.22;100.00;93491.00;5011088;28;20182;-48
2023/10/24 04:45:15;;;;;;;1999.90;999.90;;;;;;;9.20;100.00;93492.66;5010031;28;20255;-52
2023/10/24 04:47:41;;;;;;;1999.90;999.90;;;;;;;9.14;100.00;93478.84;5009836;28;20208;-53
2023/10/24 04:50:06;;;;;;;1999.90;999.90;;;;;;;9.12;100.00;93481.25;5010119;28;20186;-52
2023/10/24 04:52:31;;;;;;;1999.90;999.90;;;;;;;9.11;100.00;93478.97;5009917;28;20184;-52
2023/10/24 04:54:57;;;;;;;1999.90;999.90;;;;;;;9.11;100.00;93490.59;5010121;28;20258;-50
2023/10/24 04:57:22;;;;;;;1999.90;999.90;;;;;;;9.10;100.00;93483.63;5010419;28;20219;-48
2023/10/24 04:59:47;;;;;;;1999.90;999.90;;;;;;;9.12;100.00;93470.34;5010232;28;20196;-49
2023/10/24 05:02:13;;;;;;;1999.90;999.90;;;;;;;9.14;100.00;93465.22;5009908;28;20172;-49
2023/10/24 05:04:38;;;;;;;1999.90;999.90;;;;;;;9.15;100.00;93463.28;5009877;28;20169;-53
2023/10/24 05:07:04;;;;;;;1999.90;999.90;;;;;;;9.16;100.00;93475.66;5009739;28;20239;-50
2023/10/24 05:09:29;;;;;;;1999.90;999.90;;;;;;;9.18;100.00;93474.03;5009699;28;20175;-52
2023/10/24 05:11:54;;;;;;;1999.90;999.90;;;;;;;9.20;100.00;93463.47;5010267;28;20175;-49
2023/10/24 05:14:20;;;;;;;1999.90;999.90;;;;;;;9.19;100.00;93453.78;5009652;28;20247;-54
2023/10/24 05:16:45;;;;;;;1999.90;999.90;;;;;;;9.21;100.00;93461.47;5009721;28;20173;-48
2023/10/24 05:19:10;;;;;;;1999.90;999.90;;;;;;;9.24;100.00;93477.72;5010080;28;20169;-47
2023/10/24 05:21:36;;;;;;;1999.90;999.90;;;;;;;9.27;100.00;93482.28;5010007;28;20173;-47
2023/10/24 05:24:01;;;;;;;1999.90;999.90;;;;;;;9.32;100.00;93479.00;5009965;28;20168;-49
2023/10/24 05:26:26;;;;;;;1999.90;999.90;;;;;;;9.33;100.00;93475.06;5009255;28;20462;-52
2023/10/24 05:28:52;;;;;;;1999.90;999.90;;;;;;;9.38;100.00;93488.13;5009356;28;20180;-52
2023/10/24 05:31:17;;;;;;;1999.90;999.90;;;;;;;9.40;100.00;93491.16;5009286;28;20170;-52
2023/10/24 05:33:44;;;;;;;1999.90;999.90;;;;;;;9.40;100.00;93496.59;5009246;28;20176;-53
2023/10/24 05:36:09;;;;;;;1999.90;999.90;;;;;;;9.43;100.00;93506.63;5009257;28;20168;-52
2023/10/24 05:38:34;;;;;;;1999.90;999.90;;;;;;;9.45;100.00;93504.22;5009674;28;20231;-52
2023/10/24 05:41:00;;;;;;;1999.90;999.90;;;;;;;9.50;100.00;93495.47;5008631;28;20561;-51
2023/10/24 05:43:26;;;;;;;1999.90;999.90;;;;;;;9.55;100.00;93494.16;5009642;28;20251;-49
2023/10/24 05:45:51;;;;;;;1999.90;999.90;;;;;;;9.58;100.00;93502.19;5008980;28;20198;-51
2023/10/24 05:48:17;;;;;;;1999.90;999.90;;;;;;;9.64;100.00;93508.63;5009491;28;20253;-50
2023/10/24 05:50:43;;;;;;;1999.90;999.90;;;;;;;9.66;100.00;93492.56;5008750;28;20266;-52
2023/10/24 05:53:09;;;;;;;1999.90;999.90;;;;;;;9.66;100.00;93491.81;5008677;28;20201;-52
2023/10/24 05:55:35;;;;;;;1999.90;999.90;;;;;;;9.66;100.00;93476.22;5008808;28;20169;-51
2023/10/24 05:58:00;;;;;;;1999.90;999.90;;;;;;;9.68;100.00;93468.38;5008072;28;20206;-49
2023/10/24 06:00:25;;;;;;;1999.90;999.90;;;;;;;9.69;100.00;93467.16;5009175;28;20174;-53
2023/10/24 06:02:51;;;;;;;1999.90;999.90;;;;;;;9.72;100.00;93451.88;5008730;28;20403;-53
2023/10/24 06:05:16;;;;;;;1999.90;999.90;;;;;;;9.77;100.00;93449.34;5008478;28;20401;-54
2023/10/24 06:07:42;;;;;;;1999.90;999.90;;;;;;;9.84;100.00;93438.16;5008494;28;20173;-55
2023/10/24 06:10:08;;;;;;;1999.90;999.90;;;;;;;9.89;100.00;93429.44;5008518;28;20257;-54
2023/10/24 06:12:33;;;;;;;1999.90;999.90;;;;;;;9.97;100.00;93430.69;5008394;28;20174;-52
2023/10/24 06:14:59;;;;;;;1999.90;999.90;;;;;;;10.01;100.00;93412.22;5008818;28;20173;-52
2023/10/24 06:17:24;;;;;;;1999.90;999.90;;;;;;;10.04;100.00;93403.16;5008653;28;20235;-52
2023/10/24 06:19:51;;;;;;;1999.90;999.90;;;;;;;9.98;100.00;93383.13;5008906;28;20173;-52
2023/10/24 06:22:16;;;;;;;1999.90;999.90;;;;;;;9.98;100.00;93383.13;5007856;28;20182;-51
2023/10/24 06:24:42;;;;;;;1999.90;999.90;;;;;;;9.98;100.00;93372.22;5008812;28;20197;-54
2023/10/24 06:27:09;;;;;;;1999.90;999.90;;;;;;;10.04;100.00;93356.78;5008233;28;20174;-52
2023/10/24 06:29:35;;;;;;;1999.90;999.90;;;;;;;10.07;100.00;93350.47;5008530;28;20173;-52
2023/10/24 06:32:00;;;;;;;1999.90;999.90;;;;;;;10.17;100.00;93350.50;5008624;28;20181;-53
2023/10/24 06:34:25;;;;;;;1999.90;999.90;;;;;;;10.26;100.00;93337.63;5008481;28;20173;-52
2023/10/24 06:36:51;;;;;;;1999.90;999.90;;;;;;;10.33;100.00;93331.13;5008114;28;20344;-53
2023/10/24 06:39:16;;;;;;;1999.90;999.90;;;;;;;10.38;100.00;93328.56;5007470;28;20190;-52
2023/10/24 06:41:41;;;;;;;1999.90;999.90;;;;;;;10.47;100.00;93336.00;5007929;28;20177;-53
2023/10/24 06:44:07;;;;;;;1999.90;999.90;;;;;;;10.53;100.00;93318.59;5007902;28;20199;-55
2023/10/24 06:46:32;;;;;;;1999.90;999.90;;;;;;;10.53;100.00;93315.09;5007820;28;20197;-54
2023/10/24 06:48:57;;;;;;;1999.90;999.90;;;;;;;10.55;100.00;93320.84;5007788;28;20184;-51
2023/10/24 06:51:24;;;;;;;1999.90;999.90;;;;;;;10.67;100.00;93319.97;5008443;28;20205;-50
2023/10/24 06:53:49;;;;;;;1999.90;999.90;;;;;;;10.62;100.00;93329.50;5007755;28;20177;-50
2023/10/24 06:56:14;;;;;;;1999.90;999.90;;;;;;;10.72;100.00;93335.72;5007685;28;20178;-52
2023/10/24 06:58:40;;;;;;;1999.90;999.90;;;;;;;10.79;100.00;93346.34;5008109;28;20238;-51
2023/10/24 07:01:05;;;;;;;1999.90;999.90;;;;;;;10.82;100.00;93365.31;5008038;28;20171;-51
2023/10/24 07:03:31;;;;;;;1999.90;999.90;;;;;;;10.90;100.00;93401.28;5008182;28;20209;-50
2023/10/24 07:05:56;;;;;;;1999.90;999.90;;;;;;;10.97;100.00;93422.81;5007596;28;20172;-50
2023/10/24 07:08:22;;;;;;;1999.90;999.90;;;;;;;11.05;100.00;93451.34;5006970;28;20261;-49
2023/10/24 07:10:48;;;;;;;1999.90;999.90;;;;;;;11.09;100.00;93471.09;5007591;28;20225;-51
2023/10/24 07:13:14;;;;;;;1999.90;999.90;;;;;;;11.09;100.00;93490.22;5007543;28;20178;-49
2023/10/24 07:15:39;;;;;;;1999.90;999.90;;;;;;;11.09;100.00;93495.66;5007519;28;20180;-49
2023/10/24 07:18:05;;;;;;;1999.90;999.90;;;;;;;11.02;100.00;93523.28;5007417;28;20206;-52
2023/10/24 07:20:35;;;;;;;1999.90;999.90;;;;;;;11.00;100.00;93542.09;5007454;28;20185;-50
2023/10/24 07:23:00;;;;;;;1999.90;999.90;;;;;;;11.07;100.00;93553.47;5007484;28;20253;-49
2023/10/24 07:25:25;;;;;;;1999.90;999.90;;;;;;;11.12;100.00;93568.53;5007393;28;20178;-51
2023/10/24 07:27:51;;;;;;;1999.90;999.90;;;;;;;11.20;100.00;93577.97;5007708;28;20175;-53
2023/10/24 07:30:16;;;;;;;1999.90;999.90;;;;;;;11.23;100.00;93601.66;5007728;28;20187;-51
2023/10/24 07:32:41;;;;;;;1999.90;999.90;;;;;;;11.29;100.00;93627.19;5007587;28;20171;-49
2023/10/24 07:35:08;;;;;;;1999.90;999.90;;;;;;;11.27;100.00;93640.53;5007390;28;20174;-49
2023/10/24 07:37:35;;;;;;;1999.90;999.90;;;;;;;11.35;100.00;93656.19;5007416;28;20203;-47
2023/10/24 07:40:02;;;;;;;1999.90;999.90;;;;;;;11.39;100.00;93664.25;5007504;28;20231;-50
2023/10/24 07:42:27;;;;;;;1999.90;999.90;;;;;;;11.47;100.00;93681.91;5007339;28;20255;-50
2023/10/24 07:44:54;;;;;;;1999.90;999.90;;;;;;;11.54;100.00;93708.97;5007774;28;20170;-49
2023/10/24 07:47:19;;;;;;;1999.90;999.90;;;;;;;11.66;100.00;93725.25;5007259;28;20251;-49
2023/10/24 07:49:45;;;;;;;1999.90;999.90;;;;;;;11.77;100.00;93738.53;5007699;28;20218;-49
2023/10/24 07:52:10;;;;;;;1999.90;999.90;;;;;;;11.84;100.00;93754.66;5007343;28;20202;-50
2023/10/24 07:54:35;;;;;;;1999.90;999.90;;;;;;;11.96;100.00;93775.66;5007318;28;20178;-50
2023/10/24 07:57:02;;;;;;;1999.90;999.90;;;;;;;12.05;100.00;93811.25;5007641;28;20203;-50
2023/10/24 07:59:28;;;;;;;1999.90;999.90;;;;;;;12.13;100.00;93818.00;5007145;28;20168;-51
2023/10/24 08:01:53;;;;;;;1999.90;999.90;;;;;;;12.18;100.00;93831.06;5007143;28;20183;-52
2023/10/24 08:04:19;;;;;;;1999.90;999.90;;;;;;;12.20;100.00;93845.06;5007472;28;20171;-54
2023/10/24 08:06:44;;;;;;;1999.90;999.90;;;;;;;12.23;100.00;93855.88;5007609;28;20243;-55
2023/10/24 08:09:09;;;;;;;1999.90;999.90;;;;;;;12.27;100.00;93866.66;5007057;28;20398;-53
2023/10/24 08:11:35;;;;;;;1999.90;999.90;;;;;;;12.27;100.00;93885.81;5007122;28;20202;-54
2023/10/24 08:14:00;;;;;;;1999.90;999.90;;;;;;;12.25;100.00;93904.69;5007786;28;20184;-52
2023/10/24 08:16:26;;;;;;;1999.90;999.90;;;;;;;12.24;100.00;93922.34;5007023;28;20528;-53
2023/10/24 08:18:51;;;;;;;1999.90;999.90;;;;;;;12.25;100.00;93934.78;5007124;28;20206;-51
2023/10/24 08:21:16;;;;;;;1999.90;999.90;;;;;;;12.25;100.00;93937.53;5010704;28;20310;-51
2023/10/24 08:23:42;;;;;;;1999.90;999.90;;;;;;;12.29;100.00;93940.91;5010634;28;20178;-52
2023/10/24 08:26:07;;;;;;;1999.90;999.90;;;;;;;12.31;100.00;93943.97;5010555;28;20273;-51
2023/10/24 08:28:32;;;;;;;1999.90;999.90;;;;;;;12.36;100.00;93935.16;5010410;28;20183;-51
2023/10/24 08:30:58;;;;;;;1999.90;999.90;;;;;;;12.30;100.00;93932.25;5010993;28;20168;-51
2023/10/24 08:33:24;;;;;;;1999.90;999.90;;;;;;;12.28;100.00;93928.44;5010885;28;20194;-50
2023/10/24 08:35:49;;;;;;;1999.90;999.90;;;;;;;12.22;100.00;93931.00;5010943;28;20225;-52
2023/10/24 08:38:14;;;;;;;1999.90;999.90;;;;;;;12.15;100.00;93922.28;5010132;28;20202;-50
2023/10/24 08:40:40;;;;;;;1999.90;999.90;;;;;;;12.15;100.00;93912.09;5010277;28;20545;-51
2023/10/24 08:43:06;;;;;;;1999.90;999.90;;;;;;;12.12;100.00;93920.44;5010112;28;20179;-50
2023/10/24 08:45:31;;;;;;;1999.90;999.90;;;;;;;12.07;100.00;93924.53;5010683;28;20241;-53
2023/10/24 08:47:59;;;;;;;1999.90;999.90;;;;;;;12.05;100.00;93926.16;5010092;28;20243;-53
2023/10/24 08:50:24;;;;;;;1999.90;999.90;;;;;;;12.05;100.00;93907.00;5010858;28;20246;-52
2023/10/24 08:52:51;;;;;;;1999.90;999.90;;;;;;;12.00;100.00;93913.06;5010930;28;20193;-48
2023/10/24 08:55:18;;;;;;;1999.90;999.90;;;;;;;11.99;100.00;93904.09;5010033;28;20245;-53
2023/10/24 08:57:45;;;;;;;1999.90;999.90;;;;;;;12.02;100.00;93900.47;5010359;28;20198;-49
2023/10/24 09:00:12;;;;;;;1999.90;999.90;;;;;;;12.03;100.00;93904.75;5009994;28;20167;-49
2023/10/24 09:02:40;;;;;;;1999.90;999.90;;;;;;;12.00;100.00;93907.59;5010400;28;20202;-51
2023/10/24 09:05:09;;;;;;;1999.90;999.90;;;;;;;11.93;100.00;93897.69;5009893;28;20171;-48
2023/10/24 09:07:35;;;;;;;1999.90;999.90;;;;;;;11.95;100.00;93883.56;5009755;28;20175;-54
2023/10/24 09:10:00;;;;;;;1999.90;999.90;;;;;;;11.93;100.00;93864.09;5009578;28;20184;-51
2023/10/24 09:12:28;;;;;;;1999.90;999.90;;;;;;;11.91;100.00;93841.91;5009602;28;20195;-50
2023/10/24 09:14:54;;;;;;;1999.90;999.90;;;;;;;11.93;100.00;93836.75;5010137;28;20194;-50
2023/10/24 09:17:19;;;;;;;1999.90;999.90;;;;;;;11.85;100.00;93819.09;5009547;28;20393;-51
2023/10/24 09:19:44;;;;;;;1999.90;999.90;;;;;;;11.77;100.00;93790.50;5009577;28;20171;-48
2023/10/24 09:22:15;;;;;;;1999.90;999.90;;;;;;;11.82;100.00;93768.00;5009356;28;20171;-49
2023/10/24 09:24:45;;;;;;;1999.90;999.90;;;;;;;11.75;100.00;93743.69;5010010;28;20171;-52
2023/10/24 09:27:10;;;;;;;1999.90;999.90;;;;;;;11.66;100.00;93719.06;5009818;28;20260;-47
2023/10/24 09:29:36;;;;;;;1999.90;999.90;;;;;;;11.55;100.00;93685.88;5009939;28;20456;-46
2023/10/24 09:32:02;;;;;;;1999.90;999.90;;;;;;;11.57;100.00;93656.09;5008865;28;20460;-48
2023/10/24 09:34:27;;;;;;;1999.90;999.90;;;;;;;11.45;100.00;93627.69;5009811;28;20245;-50
2023/10/24 09:37:00;;;;;;;1999.90;999.90;;;;;;;11.42;100.00;93600.47;5008979;28;20178;-47
2023/10/24 09:39:25;;;;;;;1999.90;999.90;;;;;;;11.25;100.00;93569.94;5009584;28;20195;-49
2023/10/24 09:41:51;;;;;;;1999.90;999.90;;;;;;;11.35;100.00;93537.91;5009130;28;20174;-49
2023/10/24 09:44:17;;;;;;;1999.90;999.90;;;;;;;11.43;100.00;93504.38;5009236;28;20178;-52
2023/10/24 09:46:43;;;;;;;1999.90;999.90;;;;;;;11.50;100.00;93489.63;5008979;28;20250;-52
2023/10/24 09:49:10;;;;;;;1999.90;999.90;;;;;;;11.48;100.00;93462.75;5008985;28;20189;-50
2023/10/24 09:51:35;;;;;;;1999.90;999.90;;;;;;;11.55;100.00;93434.38;5009200;28;20184;-53
2023/10/24 09:54:03;;;;;;;1999.90;999.90;;;;;;;11.65;100.00;93408.59;5009421;28;20210;-48
2023/10/24 09:56:29;;;;;;;1999.90;999.90;;;;;;;11.62;100.00;93393.09;5009351;28;20171;-53
2023/10/24 09:58:54;;;;;;;1999.90;999.90;;;;;;;11.62;100.00;93390.34;5008878;28;20388;-51
2023/10/24 10:01:21;;;;;;;1999.90;999.90;;;;;;;11.65;100.00;93373.03;5009624;28;20178;-51
2023/10/24 10:03:50;;;;;;;1999.90;999.90;;;;;;;11.69;100.00;93374.38;5008776;28;20186;-53
2023/10/24 10:06:17;;;;;;;1999.90;999.90;;;;;;;11.69;100.00;93362.69;5008686;28;20225;-50
2023/10/24 10:08:42;;;;;;;1999.90;999.90;;;;;;;11.71;100.00;93349.31;5009288;28;20210;-51
2023/10/24 10:11:08;;;;;;;1999.90;999.90;;;;;;;11.64;100.00;93338.69;5008564;28;20174;-51
2023/10/24 10:13:42;;;;;;;1999.90;999.90;;;;;;;11.78;100.00;93333.34;5008893;28;20178;-50
2023/10/24 10:16:27;;;;;;;1999.90;999.90;;;;;;;11.67;100.00;93318.66;5008945;28;20213;-54
2023/10/24 10:19:17;;;;;;;1999.90;999.90;;;;;;;11.62;100.00;93309.09;5008847;28;20210;-52
2023/10/24 10:22:04;;;;;;;1999.90;999.90;;;;;;;11.67;100.00;93307.72;4970504;28;20194;-52
2023/10/24 10:25:00;;;;;;;1999.90;999.90;;;;;;;11.70;100.00;93284.91;5008941;28;20171;-54
2023/10/24 10:27:44;;;;;;;1999.90;999.90;;;;;;;11.72;100.00;93285.97;5008793;28;20178;-51
2023/10/24 10:30:28;;;;;;;1999.90;999.90;;;;;;;11.70;100.00;93282.19;5008761;28;20180;-52
2023/10/24 10:33:09;;;;;;;1999.90;999.90;;;;;;;11.68;100.00;93284.63;5008923;28;20278;-50
2023/10/24 10:36:05;;;;;;;1999.90;999.90;;;;;;;11.77;100.00;93279.13;5008883;28;20178;-50
2023/10/24 10:38:43;;;;;;;1999.90;999.90;;;;;;;11.62;100.00;93286.47;5006447;28;20244;-52
2023/10/24 10:41:33;;;;;;;1999.90;999.90;;;;;;;11.58;100.00;93281.13;5007969;28;20225;-53
2023/10/24 10:44:00;;;;;;;1999.90;999.90;;;;;;;11.62;100.00;93276.28;5008381;28;20286;-52
2023/10/24 10:46:28;;;;;;;1999.90;999.90;;;;;;;11.64;100.00;93275.81;5008493;28;20181;-53